»·PEaware :: N808N KSMX-KBFL

N808N :: KSMX-KBFL

FLIGHT INFORMATION

Flight Status: Arrived
Operator: Privately registered:
United States
More flights under this callsign
Pilot: Carson T. (20437)
Aircraft: PIPER PA-30 TWIN COMANCHE
(PA30)
More flights by this aircraft type
Origin: KSMX Santa Maria Pub/Capt Hancock
United States
Destination: KBFL Meadows
United States
More flights between these airports :: More routes between these airports
Route:
File this flight plan on PilotEdge
Remarks:
Altitude:
(Current/Filed)
7,500ft
Speed:
(Current/Filed)
165kts
Departed: 13-Oct-18 01:49 PM
Arrived: 13-Oct-18 02:23 PM
Distance/Time
Traveled:
76nm/0:33
Distance/Time
To Go:
Arrived

Flight Plot

Page will automatically refresh every two minutes.


Map Options




Map Legend


Flown Route
Filed Route
Departure Airport
Arrival Airport
Navaid (VOR, NDB)
Fix

Horizontal Profiles

Position Reports

Time Latitude Longitude Heading Altitude Ground
Speed
13-Oct-18 13:28 34.899357 -120.449799 43 264ft 0kts
13-Oct-18 13:29 34.899358 -120.449799 43 264ft 0kts
13-Oct-18 13:30 34.899358 -120.449798 43 264ft 0kts
13-Oct-18 13:31 34.899358 -120.449798 43 264ft 0kts
13-Oct-18 13:32 34.899358 -120.449798 43 264ft 0kts
13-Oct-18 13:33 34.899358 -120.449798 43 264ft 0kts
13-Oct-18 13:34 34.899359 -120.449797 43 264ft 0kts
13-Oct-18 13:35 34.899359 -120.449797 43 264ft 0kts
13-Oct-18 13:36 34.899359 -120.449797 43 264ft 0kts
13-Oct-18 13:37 34.899359 -120.449797 43 264ft 0kts
13-Oct-18 13:38 34.899360 -120.449796 43 264ft 0kts
13-Oct-18 13:39 34.899360 -120.449796 43 264ft 0kts
13-Oct-18 13:40 34.899360 -120.449796 43 264ft 0kts
13-Oct-18 13:41 34.899360 -120.449796 43 264ft 0kts
13-Oct-18 13:42 34.899360 -120.449795 43 264ft 0kts
13-Oct-18 13:43 34.899361 -120.449795 43 264ft 0kts
13-Oct-18 13:44 34.899361 -120.449795 43 264ft 0kts
13-Oct-18 13:45 34.898854 -120.450199 148 264ft 6kts
13-Oct-18 13:46 34.896681 -120.448497 136 264ft 15kts
13-Oct-18 13:47 34.894231 -120.445684 162 264ft 1kts
13-Oct-18 13:48 34.893509 -120.445725 184 264ft 0kts
13-Oct-18 13:49 34.893509 -120.445725 184 264ft 0kts
13-Oct-18 13:50 34.893130 -120.445757 183 264ft 10kts
13-Oct-18 13:51 34.903925 -120.459123 315 581ft 115kts
13-Oct-18 13:52 34.929914 -120.472118 28 2229ft 106kts
13-Oct-18 13:53 34.938155 -120.440052 73 3680ft 107kts
13-Oct-18 13:54 34.947090 -120.402113 73 4917ft 117kts
13-Oct-18 13:55 34.955586 -120.366463 73 6127ft 109kts
13-Oct-18 13:56 34.964293 -120.330828 73 7169ft 109kts
13-Oct-18 13:57 34.974239 -120.290835 74 7516ft 146kts
13-Oct-18 13:58 34.983166 -120.239375 72 7502ft 160kts
13-Oct-18 13:59 35.000641 -120.189446 64 7500ft 163kts
13-Oct-18 14:00 35.020068 -120.140079 64 7501ft 165kts
13-Oct-18 14:01 35.040213 -120.088285 64 7500ft 171kts
13-Oct-18 14:02 35.060749 -120.035284 64 7500ft 173kts
13-Oct-18 14:03 35.081410 -119.981863 64 7500ft 173kts
13-Oct-18 14:04 35.101990 -119.928532 64 7500ft 173kts
13-Oct-18 14:05 35.122553 -119.875157 64 7500ft 173kts
13-Oct-18 14:06 35.142767 -119.822602 64 7500ft 173kts
13-Oct-18 14:07 35.162762 -119.770531 64 7500ft 173kts
13-Oct-18 14:08 35.182746 -119.718407 64 7500ft 173kts
13-Oct-18 14:09 35.203038 -119.665393 64 7500ft 173kts
13-Oct-18 14:10 35.223485 -119.611886 64 7500ft 173kts
13-Oct-18 14:11 35.243913 -119.558341 65 7500ft 173kts
13-Oct-18 14:12 35.264302 -119.504806 65 7500ft 173kts
13-Oct-18 14:13 35.284755 -119.451015 65 7500ft 173kts
13-Oct-18 14:14 35.304657 -119.398590 65 7499ft 173kts
13-Oct-18 14:15 35.323208 -119.349633 65 7156ft 154kts
13-Oct-18 14:16 35.341210 -119.302056 65 6657ft 156kts
13-Oct-18 14:17 35.359277 -119.254248 65 5970ft 159kts
13-Oct-18 14:18 35.378120 -119.204306 65 4958ft 158kts
13-Oct-18 14:19 35.394066 -119.161966 65 3823ft 125kts
13-Oct-18 14:20 35.408162 -119.124492 65 2716ft 119kts
13-Oct-18 14:21 35.421690 -119.087881 70 1708ft 111kts
13-Oct-18 14:22 35.408645 -119.055838 137 1598ft 112kts
13-Oct-18 14:23 35.403305 -119.023530 39 1378ft 113kts
13-Oct-18 14:24 35.424085 -119.044432 315 765ft 96kts
13-Oct-18 14:25 35.438351 -119.061392 22 510ft 10kts
13-Oct-18 14:26 35.438651 -119.060168 83 510ft 9kts
13-Oct-18 14:27 35.437533 -119.058164 135 510ft 15kts
13-Oct-18 14:28 35.434812 -119.054915 136 510ft 14kts
13-Oct-18 14:29 35.435482 -119.052524 91 510ft 12kts
13-Oct-18 14:30 35.436372 -119.051298 37 510ft 0kts
13-Oct-18 14:31 35.436372 -119.051298 37 510ft 0kts
13-Oct-18 14:32 35.436373 -119.051297 37 510ft 0kts
13-Oct-18 14:33 35.436373 -119.051297 37 510ft 0kts
13-Oct-18 14:34 35.436373 -119.051297 37 510ft 0kts
13-Oct-18 14:35 35.436373 -119.051297 37 510ft 0kts

Navigation Log

Ident Type
1. KSMX Airport
2. KBFL Airport